sensor_id;sensor_type;location;lat;lon;timestamp;P1;durP1;ratioP1;P2;durP2;ratioP2
6823;SDS011;58633;49.470;11.004;2022-07-05T00:02:15;1.25;;;0.80;;
6823;SDS011;58633;49.470;11.004;2022-07-05T00:04:40;3.05;;;0.75;;
6823;SDS011;58633;49.470;11.004;2022-07-05T00:07:07;1.48;;;0.68;;
6823;SDS011;58633;49.470;11.004;2022-07-05T00:12:14;0.80;;;0.80;;
6823;SDS011;58633;49.470;11.004;2022-07-05T00:14:41;2.40;;;0.85;;
6823;SDS011;58633;49.470;11.004;2022-07-05T00:17:08;1.00;;;0.90;;
6823;SDS011;58633;49.470;11.004;2022-07-05T00:19:34;1.25;;;0.80;;
6823;SDS011;58633;49.470;11.004;2022-07-05T00:22:00;0.80;;;0.70;;
6823;SDS011;58633;49.470;11.004;2022-07-05T00:24:26;0.73;;;0.73;;
6823;SDS011;58633;49.470;11.004;2022-07-05T00:26:51;0.98;;;0.90;;
6823;SDS011;58633;49.470;11.004;2022-07-05T00:29:17;0.80;;;0.80;;
6823;SDS011;58633;49.470;11.004;2022-07-05T00:31:43;0.80;;;0.80;;
6823;SDS011;58633;49.470;11.004;2022-07-05T00:34:08;1.52;;;1.20;;
6823;SDS011;58633;49.470;11.004;2022-07-05T00:36:34;1.50;;;1.05;;
6823;SDS011;58633;49.470;11.004;2022-07-05T00:39:00;1.88;;;1.02;;
6823;SDS011;58633;49.470;11.004;2022-07-05T00:41:26;1.08;;;0.80;;
6823;SDS011;58633;49.470;11.004;2022-07-05T00:43:53;1.02;;;0.88;;
6823;SDS011;58633;49.470;11.004;2022-07-05T00:46:20;1.27;;;1.00;;
6823;SDS011;58633;49.470;11.004;2022-07-05T00:48:45;2.95;;;1.00;;
6823;SDS011;58633;49.470;11.004;2022-07-05T00:51:11;5.10;;;0.90;;
6823;SDS011;58633;49.470;11.004;2022-07-05T00:53:36;0.95;;;0.82;;
6823;SDS011;58633;49.470;11.004;2022-07-05T00:56:02;2.42;;;0.90;;
6823;SDS011;58633;49.470;11.004;2022-07-05T00:58:29;3.05;;;1.23;;
6823;SDS011;58633;49.470;11.004;2022-07-05T01:00:56;1.95;;;1.00;;
6823;SDS011;58633;49.470;11.004;2022-07-05T01:03:22;1.33;;;1.00;;
6823;SDS011;58633;49.470;11.004;2022-07-05T01:05:48;1.10;;;1.00;;
6823;SDS011;58633;49.470;11.004;2022-07-05T01:08:14;3.17;;;1.02;;
6823;SDS011;58633;49.470;11.004;2022-07-05T01:10:41;0.93;;;0.93;;
6823;SDS011;58633;49.470;11.004;2022-07-05T01:13:06;0.93;;;0.93;;
6823;SDS011;58633;49.470;11.004;2022-07-05T01:15:33;1.05;;;0.80;;
6823;SDS011;58633;49.470;11.004;2022-07-05T01:17:59;1.10;;;1.00;;
6823;SDS011;58633;49.470;11.004;2022-07-05T01:20:25;1.83;;;0.90;;
6823;SDS011;58633;49.470;11.004;2022-07-05T01:22:55;1.63;;;1.30;;
6823;SDS011;58633;49.470;11.004;2022-07-05T01:25:22;2.78;;;1.08;;
6823;SDS011;58633;49.470;11.004;2022-07-05T01:27:50;1.10;;;1.00;;
6823;SDS011;58633;49.470;11.004;2022-07-05T01:30:17;1.10;;;1.10;;
6823;SDS011;58633;49.470;11.004;2022-07-05T01:32:43;1.20;;;1.10;;
6823;SDS011;58633;49.470;11.004;2022-07-05T01:35:09;1.38;;;1.00;;
6823;SDS011;58633;49.470;11.004;2022-07-05T01:37:36;1.42;;;1.00;;
6823;SDS011;58633;49.470;11.004;2022-07-05T01:40:02;1.27;;;1.10;;
6823;SDS011;58633;49.470;11.004;2022-07-05T01:42:28;1.05;;;1.05;;
6823;SDS011;58633;49.470;11.004;2022-07-05T01:44:54;1.08;;;1.08;;
6823;SDS011;58633;49.470;11.004;2022-07-05T01:47:19;2.15;;;1.13;;
6823;SDS011;58633;49.470;11.004;2022-07-05T01:49:48;2.20;;;1.17;;
6823;SDS011;58633;49.470;11.004;2022-07-05T01:52:17;1.58;;;1.00;;
6823;SDS011;58633;49.470;11.004;2022-07-05T01:54:46;1.23;;;1.10;;
6823;SDS011;58633;49.470;11.004;2022-07-05T01:57:12;2.38;;;1.10;;
6823;SDS011;58633;49.470;11.004;2022-07-05T01:59:39;2.58;;;1.40;;
6823;SDS011;58633;49.470;11.004;2022-07-05T02:02:05;1.10;;;1.10;;
6823;SDS011;58633;49.470;11.004;2022-07-05T02:04:33;1.00;;;0.98;;
6823;SDS011;58633;49.470;11.004;2022-07-05T02:07:00;2.10;;;1.25;;
6823;SDS011;58633;49.470;11.004;2022-07-05T02:09:29;1.20;;;1.00;;
6823;SDS011;58633;49.470;11.004;2022-07-05T02:11:54;1.23;;;1.13;;
6823;SDS011;58633;49.470;11.004;2022-07-05T02:14:20;1.38;;;1.00;;
6823;SDS011;58633;49.470;11.004;2022-07-05T02:16:46;1.27;;;1.00;;
6823;SDS011;58633;49.470;11.004;2022-07-05T02:19:11;1.55;;;1.00;;
6823;SDS011;58633;49.470;11.004;2022-07-05T02:21:37;2.40;;;1.45;;
6823;SDS011;58633;49.470;11.004;2022-07-05T02:24:03;1.52;;;1.27;;
6823;SDS011;58633;49.470;11.004;2022-07-05T02:26:28;2.25;;;1.52;;
6823;SDS011;58633;49.470;11.004;2022-07-05T02:28:54;2.45;;;1.20;;
6823;SDS011;58633;49.470;11.004;2022-07-05T02:31:19;1.30;;;1.20;;
6823;SDS011;58633;49.470;11.004;2022-07-05T02:33:45;2.58;;;1.33;;
6823;SDS011;58633;49.470;11.004;2022-07-05T02:36:12;1.23;;;1.10;;
6823;SDS011;58633;49.470;11.004;2022-07-05T02:38:39;2.03;;;1.40;;
6823;SDS011;58633;49.470;11.004;2022-07-05T02:41:06;2.38;;;1.25;;
6823;SDS011;58633;49.470;11.004;2022-07-05T02:43:32;2.63;;;1.27;;
6823;SDS011;58633;49.470;11.004;2022-07-05T02:45:59;2.30;;;1.60;;
6823;SDS011;58633;49.470;11.004;2022-07-05T02:48:28;1.40;;;1.30;;
6823;SDS011;58633;49.470;11.004;2022-07-05T02:50:54;1.13;;;1.13;;
6823;SDS011;58633;49.470;11.004;2022-07-05T02:53:19;4.57;;;1.30;;
6823;SDS011;58633;49.470;11.004;2022-07-05T02:55:45;1.48;;;1.30;;
6823;SDS011;58633;49.470;11.004;2022-07-05T02:58:10;1.77;;;1.60;;
6823;SDS011;58633;49.470;11.004;2022-07-05T03:00:36;1.50;;;1.40;;
6823;SDS011;58633;49.470;11.004;2022-07-05T03:03:02;1.42;;;1.33;;
6823;SDS011;58633;49.470;11.004;2022-07-05T03:05:27;1.60;;;1.50;;
6823;SDS011;58633;49.470;11.004;2022-07-05T03:07:53;4.20;;;1.30;;
6823;SDS011;58633;49.470;11.004;2022-07-05T03:10:19;1.92;;;1.75;;
6823;SDS011;58633;49.470;11.004;2022-07-05T03:12:44;2.53;;;1.75;;
6823;SDS011;58633;49.470;11.004;2022-07-05T03:15:10;2.25;;;1.58;;
6823;SDS011;58633;49.470;11.004;2022-07-05T03:17:35;1.42;;;1.42;;
6823;SDS011;58633;49.470;11.004;2022-07-05T03:20:01;1.52;;;1.42;;
6823;SDS011;58633;49.470;11.004;2022-07-05T03:22:27;1.60;;;1.50;;
6823;SDS011;58633;49.470;11.004;2022-07-05T03:24:53;2.17;;;1.45;;
6823;SDS011;58633;49.470;11.004;2022-07-05T03:27:18;2.35;;;1.50;;
6823;SDS011;58633;49.470;11.004;2022-07-05T03:29:44;1.40;;;1.40;;
6823;SDS011;58633;49.470;11.004;2022-07-05T03:32:09;1.70;;;1.50;;
6823;SDS011;58633;49.470;11.004;2022-07-05T03:34:35;2.53;;;2.33;;
6823;SDS011;58633;49.470;11.004;2022-07-05T03:37:00;2.38;;;1.90;;
6823;SDS011;58633;49.470;11.004;2022-07-05T03:39:26;1.90;;;1.80;;
6823;SDS011;58633;49.470;11.004;2022-07-05T03:41:51;3.80;;;1.60;;
6823;SDS011;58633;49.470;11.004;2022-07-05T03:44:17;1.77;;;1.67;;
6823;SDS011;58633;49.470;11.004;2022-07-05T03:46:43;2.30;;;1.67;;
6823;SDS011;58633;49.470;11.004;2022-07-05T03:49:09;1.88;;;1.70;;
6823;SDS011;58633;49.470;11.004;2022-07-05T03:51:34;1.50;;;1.40;;
6823;SDS011;58633;49.470;11.004;2022-07-05T03:54:00;1.80;;;1.70;;
6823;SDS011;58633;49.470;11.004;2022-07-05T03:56:25;1.88;;;1.50;;
6823;SDS011;58633;49.470;11.004;2022-07-05T03:58:52;3.33;;;1.60;;
6823;SDS011;58633;49.470;11.004;2022-07-05T04:01:17;2.65;;;1.50;;
6823;SDS011;58633;49.470;11.004;2022-07-05T04:03:43;1.90;;;1.30;;
6823;SDS011;58633;49.470;11.004;2022-07-05T04:06:09;2.10;;;1.60;;
6823;SDS011;58633;49.470;11.004;2022-07-05T04:08:35;2.55;;;1.70;;
6823;SDS011;58633;49.470;11.004;2022-07-05T04:11:01;2.38;;;1.90;;
6823;SDS011;58633;49.470;11.004;2022-07-05T04:13:27;3.40;;;1.70;;
6823;SDS011;58633;49.470;11.004;2022-07-05T04:15:52;2.45;;;1.70;;
6823;SDS011;58633;49.470;11.004;2022-07-05T04:18:20;1.73;;;1.63;;
6823;SDS011;58633;49.470;11.004;2022-07-05T04:20:46;2.53;;;1.90;;
6823;SDS011;58633;49.470;11.004;2022-07-05T04:23:12;4.05;;;1.48;;
6823;SDS011;58633;49.470;11.004;2022-07-05T04:25:37;2.03;;;1.50;;
6823;SDS011;58633;49.470;11.004;2022-07-05T04:28:03;1.85;;;1.63;;
6823;SDS011;58633;49.470;11.004;2022-07-05T04:30:29;3.38;;;1.95;;
6823;SDS011;58633;49.470;11.004;2022-07-05T04:32:54;2.47;;;1.90;;
6823;SDS011;58633;49.470;11.004;2022-07-05T04:35:21;1.83;;;1.70;;
6823;SDS011;58633;49.470;11.004;2022-07-05T04:37:47;3.45;;;1.70;;
6823;SDS011;58633;49.470;11.004;2022-07-05T04:40:13;3.22;;;1.60;;
6823;SDS011;58633;49.470;11.004;2022-07-05T04:42:39;4.03;;;1.85;;
6823;SDS011;58633;49.470;11.004;2022-07-05T04:45:05;4.45;;;2.30;;
6823;SDS011;58633;49.470;11.004;2022-07-05T04:47:31;3.00;;;1.80;;
6823;SDS011;58633;49.470;11.004;2022-07-05T04:49:59;2.83;;;1.75;;
6823;SDS011;58633;49.470;11.004;2022-07-05T04:52:25;4.28;;;1.70;;
6823;SDS011;58633;49.470;11.004;2022-07-05T04:54:51;1.90;;;1.70;;
6823;SDS011;58633;49.470;11.004;2022-07-05T04:57:17;1.70;;;1.60;;
6823;SDS011;58633;49.470;11.004;2022-07-05T04:59:43;1.52;;;1.45;;
6823;SDS011;58633;49.470;11.004;2022-07-05T05:02:09;2.05;;;1.70;;
6823;SDS011;58633;49.470;11.004;2022-07-05T05:04:34;3.17;;;1.90;;
6823;SDS011;58633;49.470;11.004;2022-07-05T05:07:00;3.13;;;2.22;;
6823;SDS011;58633;49.470;11.004;2022-07-05T05:09:25;1.80;;;1.70;;
6823;SDS011;58633;49.470;11.004;2022-07-05T05:11:51;2.03;;;1.65;;
6823;SDS011;58633;49.470;11.004;2022-07-05T05:14:16;2.47;;;1.63;;
6823;SDS011;58633;49.470;11.004;2022-07-05T05:16:42;1.67;;;1.50;;
6823;SDS011;58633;49.470;11.004;2022-07-05T05:19:07;2.40;;;1.90;;
6823;SDS011;58633;49.470;11.004;2022-07-05T05:21:33;2.65;;;1.63;;
6823;SDS011;58633;49.470;11.004;2022-07-05T05:23:59;4.45;;;1.90;;
6823;SDS011;58633;49.470;11.004;2022-07-05T05:26:24;3.28;;;1.75;;
6823;SDS011;58633;49.470;11.004;2022-07-05T05:28:50;2.65;;;1.60;;
6823;SDS011;58633;49.470;11.004;2022-07-05T05:31:16;2.28;;;1.58;;
6823;SDS011;58633;49.470;11.004;2022-07-05T05:33:42;2.50;;;1.83;;
6823;SDS011;58633;49.470;11.004;2022-07-05T05:36:08;1.90;;;1.55;;
6823;SDS011;58633;49.470;11.004;2022-07-05T05:38:34;1.67;;;1.58;;
6823;SDS011;58633;49.470;11.004;2022-07-05T05:40:59;1.90;;;1.77;;
6823;SDS011;58633;49.470;11.004;2022-07-05T05:43:25;2.20;;;1.77;;
6823;SDS011;58633;49.470;11.004;2022-07-05T05:45:52;4.30;;;1.83;;
6823;SDS011;58633;49.470;11.004;2022-07-05T05:48:17;3.35;;;1.60;;
6823;SDS011;58633;49.470;11.004;2022-07-05T05:50:43;1.60;;;1.50;;
6823;SDS011;58633;49.470;11.004;2022-07-05T05:53:09;5.53;;;1.67;;
6823;SDS011;58633;49.470;11.004;2022-07-05T05:55:34;1.70;;;1.60;;
6823;SDS011;58633;49.470;11.004;2022-07-05T05:58:10;1.73;;;1.50;;
6823;SDS011;58633;49.470;11.004;2022-07-05T06:00:36;1.90;;;1.80;;
6823;SDS011;58633;49.470;11.004;2022-07-05T06:03:02;2.28;;;1.88;;
6823;SDS011;58633;49.470;11.004;2022-07-05T06:05:27;2.33;;;1.75;;
6823;SDS011;58633;49.470;11.004;2022-07-05T06:07:55;4.70;;;1.85;;
6823;SDS011;58633;49.470;11.004;2022-07-05T06:10:28;3.25;;;2.30;;
6823;SDS011;58633;49.470;11.004;2022-07-05T06:12:56;2.35;;;1.50;;
6823;SDS011;58633;49.470;11.004;2022-07-05T06:15:23;2.55;;;1.80;;
6823;SDS011;58633;49.470;11.004;2022-07-05T06:17:50;3.03;;;1.70;;
6823;SDS011;58633;49.470;11.004;2022-07-05T06:20:17;2.53;;;1.60;;
6823;SDS011;58633;49.470;11.004;2022-07-05T06:22:44;2.03;;;1.73;;
6823;SDS011;58633;49.470;11.004;2022-07-05T06:25:10;3.50;;;1.80;;
6823;SDS011;58633;49.470;11.004;2022-07-05T06:27:44;2.35;;;1.58;;
6823;SDS011;58633;49.470;11.004;2022-07-05T06:30:13;3.33;;;1.50;;
6823;SDS011;58633;49.470;11.004;2022-07-05T06:32:40;6.45;;;1.80;;
6823;SDS011;58633;49.470;11.004;2022-07-05T06:35:08;3.17;;;1.63;;
6823;SDS011;58633;49.470;11.004;2022-07-05T06:37:48;5.40;;;1.80;;
6823;SDS011;58633;49.470;11.004;2022-07-05T06:40:25;2.78;;;1.60;;
6823;SDS011;58633;49.470;11.004;2022-07-05T06:42:56;2.92;;;1.45;;
6823;SDS011;58633;49.470;11.004;2022-07-05T06:45:22;10.90;;;1.90;;
6823;SDS011;58633;49.470;11.004;2022-07-05T06:47:56;7.40;;;1.77;;
6823;SDS011;58633;49.470;11.004;2022-07-05T06:50:25;4.10;;;1.58;;
6823;SDS011;58633;49.470;11.004;2022-07-05T06:52:54;4.05;;;1.30;;
6823;SDS011;58633;49.470;11.004;2022-07-05T06:55:20;3.15;;;1.50;;
6823;SDS011;58633;49.470;11.004;2022-07-05T06:57:46;5.05;;;1.60;;
6823;SDS011;58633;49.470;11.004;2022-07-05T07:00:13;8.57;;;1.67;;
6823;SDS011;58633;49.470;11.004;2022-07-05T07:02:40;1.75;;;1.40;;
6823;SDS011;58633;49.470;11.004;2022-07-05T07:05:06;5.07;;;1.48;;
6823;SDS011;58633;49.470;11.004;2022-07-05T07:07:32;2.05;;;1.40;;
6823;SDS011;58633;49.470;11.004;2022-07-05T07:10:17;4.55;;;1.80;;
6823;SDS011;58633;49.470;11.004;2022-07-05T07:12:44;2.47;;;1.50;;
6823;SDS011;58633;49.470;11.004;2022-07-05T07:15:09;3.63;;;1.40;;
6823;SDS011;58633;49.470;11.004;2022-07-05T07:17:36;4.32;;;1.73;;
6823;SDS011;58633;49.470;11.004;2022-07-05T07:20:02;3.20;;;1.40;;
6823;SDS011;58633;49.470;11.004;2022-07-05T07:22:28;1.40;;;1.30;;
6823;SDS011;58633;49.470;11.004;2022-07-05T07:24:53;4.05;;;1.60;;
6823;SDS011;58633;49.470;11.004;2022-07-05T07:27:20;1.98;;;1.30;;
6823;SDS011;58633;49.470;11.004;2022-07-05T07:29:45;3.35;;;1.50;;
6823;SDS011;58633;49.470;11.004;2022-07-05T07:32:11;4.68;;;1.48;;
6823;SDS011;58633;49.470;11.004;2022-07-05T07:34:37;1.55;;;1.35;;
6823;SDS011;58633;49.470;11.004;2022-07-05T07:37:03;4.28;;;1.42;;
6823;SDS011;58633;49.470;11.004;2022-07-05T07:39:29;7.00;;;1.80;;
6823;SDS011;58633;49.470;11.004;2022-07-05T07:41:56;6.85;;;2.22;;
6823;SDS011;58633;49.470;11.004;2022-07-05T07:44:23;2.17;;;1.40;;
6823;SDS011;58633;49.470;11.004;2022-07-05T07:46:50;3.00;;;1.35;;
6823;SDS011;58633;49.470;11.004;2022-07-05T07:49:16;1.30;;;1.23;;
6823;SDS011;58633;49.470;11.004;2022-07-05T07:51:42;1.50;;;1.30;;
6823;SDS011;58633;49.470;11.004;2022-07-05T07:54:07;2.60;;;1.63;;
6823;SDS011;58633;49.470;11.004;2022-07-05T07:56:33;5.20;;;1.40;;
6823;SDS011;58633;49.470;11.004;2022-07-05T07:59:00;2.75;;;1.40;;
6823;SDS011;58633;49.470;11.004;2022-07-05T08:01:25;3.55;;;1.50;;
6823;SDS011;58633;49.470;11.004;2022-07-05T08:03:51;1.70;;;1.55;;
6823;SDS011;58633;49.470;11.004;2022-07-05T08:06:17;3.30;;;1.73;;
6823;SDS011;58633;49.470;11.004;2022-07-05T08:08:43;2.40;;;1.30;;
6823;SDS011;58633;49.470;11.004;2022-07-05T08:11:10;2.15;;;1.30;;
6823;SDS011;58633;49.470;11.004;2022-07-05T08:13:37;1.00;;;1.00;;
6823;SDS011;58633;49.470;11.004;2022-07-05T08:16:05;2.67;;;1.40;;
6823;SDS011;58633;49.470;11.004;2022-07-05T08:18:32;3.10;;;1.30;;
6823;SDS011;58633;49.470;11.004;2022-07-05T08:21:16;1.85;;;1.23;;
6823;SDS011;58633;49.470;11.004;2022-07-05T08:24:01;1.55;;;1.20;;
6823;SDS011;58633;49.470;11.004;2022-07-05T08:26:28;2.70;;;1.10;;
6823;SDS011;58633;49.470;11.004;2022-07-05T08:28:57;4.32;;;1.20;;
6823;SDS011;58633;49.470;11.004;2022-07-05T08:31:27;1.70;;;1.10;;
6823;SDS011;58633;49.470;11.004;2022-07-05T08:33:56;2.45;;;1.10;;
6823;SDS011;58633;49.470;11.004;2022-07-05T08:36:22;2.17;;;1.17;;
6823;SDS011;58633;49.470;11.004;2022-07-05T08:38:48;1.25;;;0.98;;
6823;SDS011;58633;49.470;11.004;2022-07-05T08:41:14;1.45;;;1.00;;
6823;SDS011;58633;49.470;11.004;2022-07-05T08:43:43;1.10;;;1.00;;
6823;SDS011;58633;49.470;11.004;2022-07-05T08:46:11;0.95;;;0.95;;
6823;SDS011;58633;49.470;11.004;2022-07-05T08:48:37;2.30;;;1.00;;
6823;SDS011;58633;49.470;11.004;2022-07-05T08:51:11;1.25;;;1.02;;
6823;SDS011;58633;49.470;11.004;2022-07-05T08:53:39;3.95;;;1.52;;
6823;SDS011;58633;49.470;11.004;2022-07-05T08:56:06;1.05;;;1.05;;
6823;SDS011;58633;49.470;11.004;2022-07-05T08:58:34;3.35;;;0.90;;
6823;SDS011;58633;49.470;11.004;2022-07-05T09:01:01;1.52;;;1.20;;
6823;SDS011;58633;49.470;11.004;2022-07-05T09:03:29;1.13;;;1.00;;
6823;SDS011;58633;49.470;11.004;2022-07-05T09:06:03;1.08;;;0.98;;
6823;SDS011;58633;49.470;11.004;2022-07-05T09:08:34;1.50;;;1.05;;
6823;SDS011;58633;49.470;11.004;2022-07-05T09:11:04;1.85;;;0.82;;
6823;SDS011;58633;49.470;11.004;2022-07-05T09:13:34;10.80;;;1.50;;
6823;SDS011;58633;49.470;11.004;2022-07-05T09:16:00;2.42;;;1.00;;
6823;SDS011;58633;49.470;11.004;2022-07-05T09:21:15;3.35;;;1.20;;
6823;SDS011;58633;49.470;11.004;2022-07-05T09:24:02;1.30;;;0.93;;
6823;SDS011;58633;49.470;11.004;2022-07-05T09:29:05;1.50;;;1.10;;
6823;SDS011;58633;49.470;11.004;2022-07-05T09:31:33;1.88;;;1.05;;
6823;SDS011;58633;49.470;11.004;2022-07-05T09:34:07;2.60;;;1.05;;
6823;SDS011;58633;49.470;11.004;2022-07-05T09:39:42;1.10;;;1.00;;
6823;SDS011;58633;49.470;11.004;2022-07-05T09:42:10;2.63;;;1.10;;
6823;SDS011;58633;49.470;11.004;2022-07-05T09:44:46;2.30;;;1.08;;
6823;SDS011;58633;49.470;11.004;2022-07-05T09:47:28;1.90;;;1.13;;
6823;SDS011;58633;49.470;11.004;2022-07-05T09:49:55;1.25;;;1.00;;
6823;SDS011;58633;49.470;11.004;2022-07-05T09:55:08;0.93;;;0.93;;
6823;SDS011;58633;49.470;11.004;2022-07-05T09:57:35;2.00;;;0.93;;
6823;SDS011;58633;49.470;11.004;2022-07-05T10:00:05;1.38;;;1.02;;
6823;SDS011;58633;49.470;11.004;2022-07-05T10:02:34;1.27;;;0.98;;
6823;SDS011;58633;49.470;11.004;2022-07-05T10:07:48;4.65;;;1.88;;
6823;SDS011;58633;49.470;11.004;2022-07-05T10:10:16;2.58;;;1.00;;
6823;SDS011;58633;49.470;11.004;2022-07-05T10:12:44;1.55;;;1.00;;
6823;SDS011;58633;49.470;11.004;2022-07-05T10:15:12;2.15;;;1.15;;
6823;SDS011;58633;49.470;11.004;2022-07-05T10:17:41;1.75;;;1.17;;
6823;SDS011;58633;49.470;11.004;2022-07-05T10:20:17;3.03;;;1.00;;
6823;SDS011;58633;49.470;11.004;2022-07-05T10:22:55;2.13;;;1.00;;
6823;SDS011;58633;49.470;11.004;2022-07-05T10:25:21;1.10;;;1.02;;
6823;SDS011;58633;49.470;11.004;2022-07-05T10:27:48;0.90;;;0.90;;
6823;SDS011;58633;49.470;11.004;2022-07-05T10:30:18;1.23;;;0.93;;
6823;SDS011;58633;49.470;11.004;2022-07-05T10:32:46;2.25;;;1.00;;
6823;SDS011;58633;49.470;11.004;2022-07-05T10:35:13;1.30;;;1.20;;
6823;SDS011;58633;49.470;11.004;2022-07-05T10:37:41;1.20;;;1.00;;
6823;SDS011;58633;49.470;11.004;2022-07-05T10:40:07;1.20;;;1.05;;
6823;SDS011;58633;49.470;11.004;2022-07-05T10:42:35;1.80;;;1.20;;
6823;SDS011;58633;49.470;11.004;2022-07-05T10:50:56;2.75;;;1.20;;
6823;SDS011;58633;49.470;11.004;2022-07-05T10:58:33;4.47;;;1.30;;
6823;SDS011;58633;49.470;11.004;2022-07-05T11:03:41;2.78;;;1.20;;
6823;SDS011;58633;49.470;11.004;2022-07-05T11:06:29;1.30;;;1.20;;
6823;SDS011;58633;49.470;11.004;2022-07-05T11:11:24;1.10;;;1.00;;
6823;SDS011;58633;49.470;11.004;2022-07-05T11:14:04;3.50;;;1.17;;
6823;SDS011;58633;49.470;11.004;2022-07-05T11:22:26;2.13;;;1.10;;
6823;SDS011;58633;49.470;11.004;2022-07-05T11:24:52;2.22;;;0.95;;
6823;SDS011;58633;49.470;11.004;2022-07-05T11:27:19;4.43;;;1.00;;
6823;SDS011;58633;49.470;11.004;2022-07-05T11:29:46;2.47;;;0.95;;
6823;SDS011;58633;49.470;11.004;2022-07-05T11:32:20;1.17;;;0.90;;
6823;SDS011;58633;49.470;11.004;2022-07-05T11:34:52;1.75;;;1.05;;
6823;SDS011;58633;49.470;11.004;2022-07-05T11:40:25;1.20;;;1.10;;
6823;SDS011;58633;49.470;11.004;2022-07-05T11:42:48;1.92;;;0.90;;
6823;SDS011;58633;49.470;11.004;2022-07-05T11:45:15;1.73;;;1.05;;
6823;SDS011;58633;49.470;11.004;2022-07-05T11:47:42;1.33;;;1.00;;
6823;SDS011;58633;49.470;11.004;2022-07-05T11:50:08;3.42;;;1.30;;
6823;SDS011;58633;49.470;11.004;2022-07-05T11:52:35;1.95;;;1.05;;
6823;SDS011;58633;49.470;11.004;2022-07-05T11:55:02;0.90;;;0.90;;
6823;SDS011;58633;49.470;11.004;2022-07-05T11:57:30;0.90;;;0.90;;
6823;SDS011;58633;49.470;11.004;2022-07-05T11:59:56;1.05;;;1.00;;
6823;SDS011;58633;49.470;11.004;2022-07-05T12:02:22;1.23;;;1.08;;
6823;SDS011;58633;49.470;11.004;2022-07-05T12:07:28;3.63;;;1.20;;
6823;SDS011;58633;49.470;11.004;2022-07-05T12:09:58;0.88;;;0.88;;
6823;SDS011;58633;49.470;11.004;2022-07-05T12:12:43;1.75;;;0.93;;
6823;SDS011;58633;49.470;11.004;2022-07-05T12:15:10;1.33;;;1.10;;
6823;SDS011;58633;49.470;11.004;2022-07-05T12:17:40;1.67;;;1.20;;
6823;SDS011;58633;49.470;11.004;2022-07-05T12:20:10;4.70;;;1.10;;
6823;SDS011;58633;49.470;11.004;2022-07-05T12:22:41;1.02;;;1.02;;
6823;SDS011;58633;49.470;11.004;2022-07-05T12:25:10;1.17;;;1.00;;
6823;SDS011;58633;49.470;11.004;2022-07-05T12:27:41;1.40;;;1.10;;
6823;SDS011;58633;49.470;11.004;2022-07-05T12:30:08;2.65;;;0.90;;
6823;SDS011;58633;49.470;11.004;2022-07-05T12:38:06;1.33;;;1.20;;
6823;SDS011;58633;49.470;11.004;2022-07-05T12:40:34;2.70;;;1.00;;
6823;SDS011;58633;49.470;11.004;2022-07-05T12:43:02;2.70;;;1.00;;
6823;SDS011;58633;49.470;11.004;2022-07-05T12:45:31;2.88;;;0.95;;
6823;SDS011;58633;49.470;11.004;2022-07-05T12:47:59;1.50;;;0.77;;
6823;SDS011;58633;49.470;11.004;2022-07-05T12:50:28;2.95;;;1.00;;
6823;SDS011;58633;49.470;11.004;2022-07-05T12:53:05;3.45;;;1.17;;
6823;SDS011;58633;49.470;11.004;2022-07-05T12:56:08;0.90;;;0.90;;
6823;SDS011;58633;49.470;11.004;2022-07-05T12:59:01;2.90;;;0.95;;
6823;SDS011;58633;49.470;11.004;2022-07-05T13:06:40;1.70;;;1.10;;
6823;SDS011;58633;49.470;11.004;2022-07-05T13:09:29;1.15;;;1.00;;
6823;SDS011;58633;49.470;11.004;2022-07-05T13:14:46;1.92;;;1.00;;
6823;SDS011;58633;49.470;11.004;2022-07-05T13:17:14;1.83;;;0.90;;
6823;SDS011;58633;49.470;11.004;2022-07-05T13:19:41;1.27;;;0.98;;
6823;SDS011;58633;49.470;11.004;2022-07-05T13:22:08;2.13;;;1.08;;
6823;SDS011;58633;49.470;11.004;2022-07-05T13:24:34;1.23;;;1.05;;
6823;SDS011;58633;49.470;11.004;2022-07-05T13:27:00;2.05;;;1.20;;
6823;SDS011;58633;49.470;11.004;2022-07-05T13:29:27;1.95;;;1.13;;
6823;SDS011;58633;49.470;11.004;2022-07-05T13:31:53;1.80;;;1.08;;
6823;SDS011;58633;49.470;11.004;2022-07-05T13:34:19;1.10;;;1.10;;
6823;SDS011;58633;49.470;11.004;2022-07-05T13:36:49;1.42;;;0.90;;
6823;SDS011;58633;49.470;11.004;2022-07-05T13:39:16;1.55;;;1.00;;
6823;SDS011;58633;49.470;11.004;2022-07-05T13:41:42;1.38;;;1.10;;
6823;SDS011;58633;49.470;11.004;2022-07-05T13:44:07;1.15;;;1.05;;
6823;SDS011;58633;49.470;11.004;2022-07-05T13:46:33;2.38;;;1.10;;
6823;SDS011;58633;49.470;11.004;2022-07-05T13:48:59;2.35;;;1.00;;
6823;SDS011;58633;49.470;11.004;2022-07-05T13:51:25;2.25;;;1.20;;
6823;SDS011;58633;49.470;11.004;2022-07-05T13:53:50;1.70;;;1.00;;
6823;SDS011;58633;49.470;11.004;2022-07-05T13:56:16;2.25;;;1.13;;
6823;SDS011;58633;49.470;11.004;2022-07-05T13:58:42;1.50;;;1.00;;
6823;SDS011;58633;49.470;11.004;2022-07-05T14:01:08;1.20;;;1.00;;
6823;SDS011;58633;49.470;11.004;2022-07-05T14:03:34;2.08;;;1.17;;
6823;SDS011;58633;49.470;11.004;2022-07-05T14:05:59;1.08;;;1.00;;
6823;SDS011;58633;49.470;11.004;2022-07-05T14:08:25;2.75;;;1.10;;
6823;SDS011;58633;49.470;11.004;2022-07-05T14:10:51;1.10;;;1.10;;
6823;SDS011;58633;49.470;11.004;2022-07-05T14:13:19;1.83;;;1.00;;
6823;SDS011;58633;49.470;11.004;2022-07-05T14:15:49;1.13;;;1.00;;
6823;SDS011;58633;49.470;11.004;2022-07-05T14:18:15;1.73;;;1.20;;
6823;SDS011;58633;49.470;11.004;2022-07-05T14:20:43;3.45;;;1.20;;
6823;SDS011;58633;49.470;11.004;2022-07-05T14:23:10;1.00;;;0.90;;
6823;SDS011;58633;49.470;11.004;2022-07-05T14:25:36;1.35;;;1.25;;
6823;SDS011;58633;49.470;11.004;2022-07-05T14:28:02;2.10;;;1.17;;
6823;SDS011;58633;49.470;11.004;2022-07-05T14:30:32;5.55;;;1.33;;
6823;SDS011;58633;49.470;11.004;2022-07-05T14:32:59;1.30;;;1.20;;
6823;SDS011;58633;49.470;11.004;2022-07-05T14:35:24;1.65;;;1.02;;
6823;SDS011;58633;49.470;11.004;2022-07-05T14:37:51;3.20;;;1.20;;
6823;SDS011;58633;49.470;11.004;2022-07-05T14:40:17;3.90;;;1.00;;
6823;SDS011;58633;49.470;11.004;2022-07-05T14:42:43;2.35;;;1.05;;
6823;SDS011;58633;49.470;11.004;2022-07-05T14:45:09;1.30;;;1.00;;
6823;SDS011;58633;49.470;11.004;2022-07-05T14:47:36;2.13;;;1.10;;
6823;SDS011;58633;49.470;11.004;2022-07-05T14:50:02;2.88;;;1.10;;
6823;SDS011;58633;49.470;11.004;2022-07-05T14:52:28;1.60;;;1.02;;
6823;SDS011;58633;49.470;11.004;2022-07-05T14:54:55;1.17;;;1.08;;
6823;SDS011;58633;49.470;11.004;2022-07-05T14:57:22;1.10;;;1.00;;
6823;SDS011;58633;49.470;11.004;2022-07-05T14:59:47;2.92;;;0.93;;
6823;SDS011;58633;49.470;11.004;2022-07-05T15:02:13;1.23;;;1.13;;
6823;SDS011;58633;49.470;11.004;2022-07-05T15:04:39;0.93;;;0.90;;
6823;SDS011;58633;49.470;11.004;2022-07-05T15:07:08;1.00;;;0.90;;
6823;SDS011;58633;49.470;11.004;2022-07-05T15:09:33;2.20;;;1.30;;
6823;SDS011;58633;49.470;11.004;2022-07-05T15:11:59;0.90;;;0.90;;
6823;SDS011;58633;49.470;11.004;2022-07-05T15:14:25;1.48;;;1.00;;
6823;SDS011;58633;49.470;11.004;2022-07-05T15:16:52;1.30;;;1.20;;
6823;SDS011;58633;49.470;11.004;2022-07-05T15:19:19;0.98;;;0.90;;
6823;SDS011;58633;49.470;11.004;2022-07-05T15:21:44;1.17;;;0.90;;
6823;SDS011;58633;49.470;11.004;2022-07-05T15:24:11;1.30;;;1.08;;
6823;SDS011;58633;49.470;11.004;2022-07-05T15:26:36;1.88;;;1.10;;
6823;SDS011;58633;49.470;11.004;2022-07-05T15:29:03;1.10;;;1.08;;
6823;SDS011;58633;49.470;11.004;2022-07-05T15:31:31;1.38;;;0.90;;
6823;SDS011;58633;49.470;11.004;2022-07-05T15:33:58;2.22;;;0.95;;
6823;SDS011;58633;49.470;11.004;2022-07-05T15:36:24;2.58;;;1.40;;
6823;SDS011;58633;49.470;11.004;2022-07-05T15:38:51;1.48;;;1.00;;
6823;SDS011;58633;49.470;11.004;2022-07-05T15:41:17;1.05;;;1.00;;
6823;SDS011;58633;49.470;11.004;2022-07-05T15:43:43;1.95;;;1.20;;
6823;SDS011;58633;49.470;11.004;2022-07-05T15:46:09;1.08;;;1.08;;
6823;SDS011;58633;49.470;11.004;2022-07-05T15:48:34;2.25;;;1.05;;